createdAt,value
2023-08-07T00:03:42.680Z,13.50
2023-08-07T00:08:46.539Z,13.51
2023-08-07T00:13:50.417Z,13.51
2023-08-07T00:18:58.180Z,13.50
2023-08-07T00:24:07.530Z,13.50
2023-08-07T00:29:11.469Z,13.50
2023-08-07T00:34:15.504Z,13.48
2023-08-07T00:39:20.645Z,13.47
2023-08-07T00:44:27.552Z,13.45
2023-08-07T00:49:31.579Z,13.44
2023-08-07T00:54:35.708Z,13.44
2023-08-07T00:59:40.768Z,13.43
2023-08-07T01:04:44.749Z,13.41
2023-08-07T01:09:48.770Z,13.40
2023-08-07T01:15:15.645Z,13.40
2023-08-07T01:20:19.551Z,13.39
2023-08-07T01:25:23.479Z,13.35
2023-08-07T01:30:44.031Z,13.31
2023-08-07T01:35:49.449Z,13.28
2023-08-07T01:40:54.341Z,13.24
2023-08-07T01:45:59.794Z,13.20
2023-08-07T01:51:03.850Z,13.14
2023-08-07T01:56:07.911Z,13.09
2023-08-07T02:01:11.870Z,13.05
2023-08-07T02:06:15.625Z,12.98
2023-08-07T02:11:19.394Z,12.90
2023-08-07T02:16:23.247Z,12.84
2023-08-07T02:21:26.942Z,12.80
2023-08-07T02:26:30.683Z,12.79
2023-08-07T02:31:36.005Z,12.83
2023-08-07T02:36:39.957Z,12.89
2023-08-07T02:41:43.743Z,12.96
2023-08-07T02:46:47.754Z,13.04
2023-08-07T02:51:51.530Z,13.11
2023-08-07T02:56:55.490Z,13.16
2023-08-07T03:01:59.477Z,13.22
2023-08-07T03:07:03.291Z,13.28
2023-08-07T03:12:07.654Z,13.34
2023-08-07T03:17:12.459Z,13.43
2023-08-07T03:22:16.645Z,13.50
2023-08-07T03:27:20.551Z,13.55
2023-08-07T03:32:24.480Z,13.61
2023-08-07T03:37:29.092Z,13.66
2023-08-07T03:42:32.887Z,13.70
2023-08-07T03:47:37.651Z,13.73
2023-08-07T03:52:42.733Z,13.75
2023-08-07T03:57:47.235Z,13.78
2023-08-07T04:02:51.165Z,13.79
2023-08-07T04:07:55.487Z,13.80
2023-08-07T04:13:01.456Z,13.79
2023-08-07T04:18:05.387Z,13.81
2023-08-07T04:23:10.357Z,13.82
2023-08-07T04:28:14.182Z,13.86
2023-08-07T04:33:18.459Z,13.90
2023-08-07T04:38:23.180Z,13.95
2023-08-07T04:43:27.070Z,13.98
2023-08-07T04:48:30.967Z,14.01
2023-08-07T04:53:34.957Z,14.03
2023-08-07T04:58:38.709Z,14.01
2023-08-07T05:03:42.647Z,14.02
2023-08-07T05:08:46.505Z,14.04
2023-08-07T05:13:50.490Z,14.08
2023-08-07T05:18:54.629Z,14.12
2023-08-07T05:23:58.458Z,14.20
2023-08-07T05:29:02.222Z,14.27
2023-08-07T05:34:06.012Z,14.33
2023-08-07T05:39:10.305Z,14.39
2023-08-07T05:44:14.060Z,14.47
2023-08-07T05:49:17.826Z,14.57
2023-08-07T05:54:21.638Z,14.74
2023-08-07T05:59:25.436Z,14.83
2023-08-07T06:04:29.250Z,14.81
2023-08-07T06:09:33.127Z,14.77
2023-08-07T06:14:38.880Z,14.73
2023-08-07T06:19:42.692Z,14.63
2023-08-07T06:24:47.090Z,14.56
2023-08-07T06:29:50.938Z,14.52
2023-08-07T06:34:54.897Z,14.54
2023-08-07T06:39:59.701Z,14.58
2023-08-07T06:45:04.924Z,14.63
2023-08-07T06:50:09.103Z,14.72
2023-08-07T06:55:12.889Z,14.82
2023-08-07T07:00:17.388Z,15.03
2023-08-07T07:05:21.528Z,15.25
2023-08-07T07:10:25.972Z,15.50
2023-08-07T07:15:30.514Z,15.67
2023-08-07T07:20:34.965Z,15.87
2023-08-07T07:25:39.067Z,16.17
2023-08-07T07:30:43.041Z,16.35
2023-08-07T07:35:47.189Z,16.47
2023-08-07T07:40:57.548Z,16.67
2023-08-07T07:46:01.565Z,16.93
2023-08-07T07:51:11.961Z,17.02
2023-08-07T07:56:17.695Z,17.27
2023-08-07T08:01:24.994Z,17.44
2023-08-07T08:06:32.379Z,17.48
2023-08-07T08:11:36.227Z,17.61
2023-08-07T08:16:41.407Z,17.64
2023-08-07T08:21:46.626Z,17.38
2023-08-07T08:26:50.294Z,17.49
2023-08-07T08:31:56.034Z,17.81
2023-08-07T08:37:01.103Z,17.87
2023-08-07T08:42:05.062Z,18.09
2023-08-07T08:47:11.404Z,18.11
2023-08-07T08:52:26.395Z,18.24
2023-08-07T08:57:30.845Z,18.12
2023-08-07T09:02:34.861Z,17.91
2023-08-07T09:07:39.463Z,17.83
2023-08-07T09:12:50.305Z,17.86
2023-08-07T09:17:55.881Z,18.24
2023-08-07T09:22:59.753Z,18.46
2023-08-07T09:28:07.321Z,18.63
2023-08-07T09:33:11.872Z,18.97
2023-08-07T09:38:16.481Z,19.38
2023-08-07T09:43:24.099Z,19.25
2023-08-07T09:48:29.272Z,19.62
2023-08-07T09:53:33.304Z,19.40
2023-08-07T09:58:37.027Z,18.72
2023-08-07T10:03:40.830Z,18.68
2023-08-07T10:08:46.224Z,19.14
2023-08-07T10:13:50.036Z,19.01
2023-08-07T10:18:53.916Z,18.91
2023-08-07T10:24:00.275Z,18.97
2023-08-07T10:29:06.356Z,19.32
2023-08-07T10:34:10.453Z,19.46
2023-08-07T10:39:14.680Z,19.35
2023-08-07T10:44:32.521Z,19.39
2023-08-07T10:49:38.679Z,19.55
2023-08-07T10:54:47.499Z,20.01
2023-08-07T11:00:17.389Z,20.16
2023-08-07T11:05:21.869Z,20.44
2023-08-07T11:10:26.035Z,20.12
2023-08-07T11:15:29.929Z,20.08
2023-08-07T11:20:34.196Z,19.91
2023-08-07T11:25:38.733Z,19.83
2023-08-07T11:30:43.100Z,19.57
2023-08-07T11:35:47.913Z,19.94
2023-08-07T11:40:54.936Z,20.42
2023-08-07T11:46:01.156Z,20.34
2023-08-07T11:51:06.106Z,20.48
2023-08-07T11:56:11.988Z,20.23
2023-08-07T12:01:21.572Z,19.88
2023-08-07T12:06:27.777Z,19.92
2023-08-07T12:11:32.158Z,20.27
2023-08-07T12:16:37.642Z,20.33
2023-08-07T12:21:41.600Z,20.61
2023-08-07T12:26:45.857Z,20.43
2023-08-07T12:31:49.686Z,20.13
2023-08-07T12:36:53.521Z,20.34
2023-08-07T12:47:04.728Z,20.09
2023-08-07T12:52:08.926Z,20.16
2023-08-07T12:57:12.693Z,20.25
2023-08-07T13:02:16.504Z,20.22
2023-08-07T13:07:20.955Z,19.99
2023-08-07T13:12:26.545Z,19.87
2023-08-07T13:17:30.970Z,20.05
2023-08-07T13:22:36.552Z,20.39
2023-08-07T13:27:41.126Z,20.38
2023-08-07T13:32:45.025Z,20.08
2023-08-07T13:37:48.965Z,19.86
2023-08-07T13:42:54.687Z,19.71
2023-08-07T13:47:58.615Z,19.70
2023-08-07T13:53:13.604Z,19.81
2023-08-07T13:58:19.919Z,19.83
2023-08-07T14:03:24.686Z,20.02
2023-08-07T14:08:30.079Z,20.40
2023-08-07T14:13:34.534Z,20.54
2023-08-07T14:18:39.518Z,20.88
2023-08-07T14:23:46.706Z,20.63
2023-08-07T14:28:50.716Z,19.58
2023-08-07T14:33:55.155Z,18.57
2023-08-07T14:39:00.124Z,18.21
2023-08-07T14:44:04.111Z,18.53
2023-08-07T14:49:07.995Z,18.83
2023-08-07T14:54:13.006Z,18.78
2023-08-07T14:59:16.959Z,18.60
2023-08-07T15:04:21.161Z,18.69
2023-08-07T15:09:25.914Z,19.25
2023-08-07T15:14:30.269Z,19.55
2023-08-07T15:19:34.354Z,19.35
2023-08-07T15:24:38.659Z,19.02
2023-08-07T15:29:46.358Z,18.84
2023-08-07T15:34:50.637Z,18.76
2023-08-07T15:39:54.494Z,18.69
2023-08-07T15:44:59.187Z,18.65
2023-08-07T15:50:05.932Z,18.66
2023-08-07T15:55:10.294Z,18.81
2023-08-07T16:00:15.626Z,19.04
2023-08-07T16:05:23.523Z,19.05
2023-08-07T16:10:28.913Z,18.93
2023-08-07T16:15:32.928Z,18.82
2023-08-07T16:20:39.618Z,18.71
2023-08-07T16:25:43.771Z,18.53
2023-08-07T16:30:48.363Z,18.43
2023-08-07T16:35:52.606Z,18.46
2023-08-07T16:40:56.861Z,18.43
2023-08-07T16:46:01.799Z,18.40
2023-08-07T16:51:15.100Z,18.26
2023-08-07T16:56:30.039Z,17.99
2023-08-07T17:01:48.305Z,17.74
2023-08-07T17:07:04.185Z,17.57
2023-08-07T17:12:10.500Z,17.46
2023-08-07T17:17:14.813Z,17.36
2023-08-07T17:22:20.895Z,17.28
2023-08-07T17:27:30.452Z,17.23
2023-08-07T17:32:38.956Z,17.22
2023-08-07T17:37:43.295Z,17.23
2023-08-07T17:42:56.626Z,17.20
2023-08-07T17:48:05.173Z,17.17
2023-08-07T17:53:09.206Z,17.09
2023-08-07T17:58:13.615Z,16.99
2023-08-07T18:03:33.452Z,16.91
2023-08-07T18:08:38.770Z,16.85
2023-08-07T18:13:44.334Z,16.76
2023-08-07T18:18:59.434Z,16.70
2023-08-07T18:24:04.685Z,16.66
2023-08-07T18:29:09.251Z,16.61
2023-08-07T18:34:18.464Z,16.56
2023-08-07T18:39:27.742Z,16.48
2023-08-07T18:44:32.872Z,16.37
2023-08-07T18:49:38.252Z,16.26
2023-08-07T18:55:05.217Z,16.18
2023-08-07T19:00:28.822Z,16.13
2023-08-07T19:05:33.668Z,16.02
2023-08-07T19:10:51.259Z,15.93
2023-08-07T19:16:13.536Z,15.90
2023-08-07T19:21:18.282Z,15.86
2023-08-07T19:26:23.971Z,15.83
2023-08-07T19:31:29.001Z,15.85
2023-08-07T19:36:41.258Z,15.89
2023-08-07T19:41:45.996Z,15.94
2023-08-07T19:46:52.814Z,15.99
2023-08-07T19:51:57.417Z,16.00
2023-08-07T19:57:02.279Z,16.00
2023-08-07T20:02:09.128Z,15.99
2023-08-07T20:07:13.216Z,15.94
2023-08-07T20:12:18.167Z,15.88
2023-08-07T20:17:22.771Z,15.83
2023-08-07T20:22:27.298Z,15.74
2023-08-07T20:27:31.815Z,15.68
2023-08-07T20:32:36.674Z,15.60
2023-08-07T20:37:41.137Z,15.44
2023-08-07T20:42:45.811Z,15.30
2023-08-07T20:47:49.962Z,15.12
2023-08-07T20:52:55.564Z,14.97
2023-08-07T20:58:01.293Z,14.82
2023-08-07T21:03:05.560Z,14.69
2023-08-07T21:08:09.487Z,14.59
2023-08-07T21:13:13.679Z,14.50
2023-08-07T21:18:17.438Z,14.38
2023-08-07T21:23:21.923Z,14.28
2023-08-07T21:28:25.782Z,14.17
2023-08-07T21:33:29.515Z,14.06
2023-08-07T21:38:33.269Z,14.01
2023-08-07T21:43:36.970Z,13.94
2023-08-07T21:48:41.190Z,13.89
2023-08-07T21:53:45.105Z,13.82
2023-08-07T21:58:49.346Z,13.84
2023-08-07T22:03:54.641Z,13.89
2023-08-07T22:08:59.082Z,13.90
2023-08-07T22:14:04.063Z,13.93
2023-08-07T22:19:10.422Z,14.00
2023-08-07T22:24:16.754Z,13.99
2023-08-07T22:29:21.445Z,13.96
2023-08-07T22:34:26.192Z,13.92
2023-08-07T22:39:30.542Z,13.91
2023-08-07T22:44:35.566Z,13.89
2023-08-07T22:49:39.952Z,13.87
2023-08-07T22:54:44.075Z,13.84
2023-08-07T22:59:49.461Z,13.83
2023-08-07T23:04:54.642Z,13.83
2023-08-07T23:09:58.916Z,13.80
2023-08-07T23:15:02.635Z,13.80
2023-08-07T23:20:09.185Z,13.88
2023-08-07T23:25:14.510Z,13.92
2023-08-07T23:30:19.751Z,13.94
2023-08-07T23:35:24.650Z,13.92
2023-08-07T23:40:28.421Z,13.88
2023-08-07T23:45:33.379Z,13.87
2023-08-07T23:50:37.168Z,13.83
2023-08-07T23:55:41.550Z,13.86
